createdAt,value
2022-08-16T00:02:29.319Z,6.90
2022-08-16T00:05:24.557Z,6.78
2022-08-16T00:08:11.739Z,6.03
2022-08-16T00:11:25.569Z,6.22
2022-08-16T00:14:24.274Z,6.30
2022-08-16T00:17:22.541Z,7.10
2022-08-16T00:20:12.360Z,6.70
2022-08-16T00:23:06.587Z,6.03
2022-08-16T00:26:34.592Z,6.75
2022-08-16T00:29:11.546Z,6.95
2022-08-16T00:32:05.645Z,6.80
2022-08-16T00:35:00.677Z,6.15
2022-08-16T00:37:57.451Z,6.28
2022-08-16T00:40:53.936Z,5.82
2022-08-16T00:43:47.558Z,6.57
2022-08-16T00:47:07.566Z,6.35
2022-08-16T00:49:56.314Z,9.82
2022-08-16T00:52:53.603Z,6.10
2022-08-16T00:55:47.290Z,6.82
2022-08-16T00:58:44.592Z,6.40
2022-08-16T01:01:35.905Z,6.38
2022-08-16T01:04:33.591Z,6.53
2022-08-16T01:07:20.706Z,8.23
2022-08-16T01:10:16.646Z,6.93
2022-08-16T01:13:15.239Z,7.18
2022-08-16T01:16:14.624Z,6.70
2022-08-16T01:19:30.624Z,7.03
2022-08-16T01:22:47.836Z,6.57
2022-08-16T01:26:00.293Z,6.68
2022-08-16T01:29:09.873Z,6.93
2022-08-16T01:32:03.623Z,8.13
2022-08-16T01:34:57.069Z,7.03
2022-08-16T01:37:56.655Z,6.55
2022-08-16T01:40:50.666Z,5.85
2022-08-16T01:43:40.076Z,6.55
2022-08-16T01:46:40.970Z,6.72
2022-08-16T01:50:42.937Z,6.72
2022-08-16T01:53:01.671Z,6.32
2022-08-16T01:55:56.674Z,6.90
2022-08-16T01:58:50.683Z,9.35
2022-08-16T02:01:49.462Z,7.13
2022-08-16T02:04:49.219Z,8.20
2022-08-16T02:07:49.703Z,8.32
2022-08-16T02:10:39.507Z,8.18
2022-08-16T02:13:35.783Z,6.85
2022-08-16T02:16:28.831Z,7.70
2022-08-16T02:19:58.945Z,7.15
2022-08-16T02:22:35.126Z,8.43
2022-08-16T02:25:52.136Z,9.90
2022-08-16T02:28:47.223Z,8.93
2022-08-16T02:32:03.949Z,9.40
2022-08-16T02:34:50.340Z,15.05
2022-08-16T02:37:51.600Z,11.43
2022-08-16T02:40:46.830Z,14.57
2022-08-16T02:43:41.795Z,12.45
2022-08-16T02:46:35.765Z,10.15
2022-08-16T02:49:58.364Z,12.38
2022-08-16T02:52:36.924Z,11.35
2022-08-16T02:55:40.709Z,11.50
2022-08-16T02:58:34.777Z,9.85
2022-08-16T03:01:33.719Z,11.30
2022-08-16T03:04:50.897Z,9.68
2022-08-16T03:07:50.838Z,8.73
2022-08-16T03:10:44.849Z,10.27
2022-08-16T03:13:40.396Z,10.98
2022-08-16T03:16:39.055Z,10.05
2022-08-16T03:19:48.491Z,12.33
2022-08-16T03:22:45.440Z,10.25
2022-08-16T03:25:44.845Z,13.60
2022-08-16T03:28:41.863Z,10.10
2022-08-16T03:31:40.581Z,18.80
2022-08-16T03:34:35.868Z,13.85
2022-08-16T03:37:30.860Z,13.13
2022-08-16T03:40:38.868Z,12.02
2022-08-16T03:43:51.196Z,10.80
2022-08-16T03:46:47.678Z,11.00
2022-08-16T03:49:43.858Z,10.40
2022-08-16T03:52:38.915Z,12.25
2022-08-16T03:55:37.140Z,11.57
2022-08-16T03:58:39.865Z,11.30
2022-08-16T04:01:31.716Z,12.18
2022-08-16T04:04:30.969Z,15.63
2022-08-16T04:07:27.900Z,13.07
2022-08-16T04:10:37.043Z,14.75
2022-08-16T04:13:58.706Z,15.25
2022-08-16T04:16:39.003Z,14.52
2022-08-16T04:19:32.898Z,13.82
2022-08-16T04:22:27.671Z,15.02
2022-08-16T04:25:21.939Z,18.17
2022-08-16T04:28:51.899Z,13.75
2022-08-16T04:31:30.920Z,14.68
2022-08-16T04:34:25.036Z,12.95
2022-08-16T04:37:19.921Z,14.45
2022-08-16T04:40:10.771Z,13.82
2022-08-16T04:43:14.925Z,17.20
2022-08-16T04:46:05.761Z,21.63
2022-08-16T04:49:18.975Z,18.40
2022-08-16T04:52:06.159Z,18.98
2022-08-16T04:55:31.966Z,18.50
2022-08-16T04:58:44.277Z,18.30
2022-08-16T05:01:58.346Z,18.63
2022-08-16T05:04:45.970Z,17.27
2022-08-16T05:07:39.962Z,22.75
2022-08-16T05:10:51.992Z,18.10
2022-08-16T05:13:50.031Z,18.38
2022-08-16T05:16:44.994Z,18.98
2022-08-16T05:19:36.113Z,26.48
2022-08-16T05:25:41.371Z,19.05
2022-08-16T05:28:42.025Z,19.67
2022-08-16T05:31:30.546Z,29.27
2022-08-16T05:34:28.085Z,23.10
2022-08-16T05:37:16.138Z,18.27
2022-08-16T05:40:13.420Z,24.67
2022-08-16T05:43:07.132Z,32.00
2022-08-16T05:46:00.368Z,26.55
2022-08-16T05:48:54.858Z,22.35
2022-08-16T05:51:45.722Z,20.88
2022-08-16T05:54:43.034Z,19.30
2022-08-16T05:57:41.939Z,30.67
2022-08-16T06:00:36.121Z,29.80
2022-08-16T06:03:30.069Z,37.78
2022-08-16T06:06:28.038Z,24.23
2022-08-16T06:09:23.084Z,28.23
2022-08-16T06:12:28.023Z,22.50
2022-08-16T06:15:25.101Z,36.58
2022-08-16T06:18:12.519Z,31.17
2022-08-16T06:21:06.114Z,24.20
2022-08-16T06:24:03.226Z,32.50
2022-08-16T06:27:17.233Z,36.92
2022-08-16T06:30:05.038Z,27.55
2022-08-16T06:33:00.141Z,21.48
2022-08-16T06:35:48.050Z,38.63
2022-08-16T06:38:55.316Z,29.08
2022-08-16T06:41:50.160Z,42.55
2022-08-16T06:44:37.380Z,33.65
2022-08-16T06:47:53.382Z,36.03
2022-08-16T06:50:40.509Z,32.63
2022-08-16T06:53:36.554Z,40.42
2022-08-16T06:56:24.001Z,28.33
2022-08-16T06:59:18.208Z,32.47
2022-08-16T07:02:06.166Z,32.10
2022-08-16T07:05:27.300Z,29.98
2022-08-16T07:08:36.237Z,30.85
2022-08-16T07:11:47.725Z,41.90
2022-08-16T07:14:45.252Z,27.38
2022-08-16T07:17:33.921Z,27.63
2022-08-16T07:20:36.049Z,32.85
2022-08-16T07:23:38.872Z,28.85
2022-08-16T07:26:33.290Z,40.13
2022-08-16T07:29:20.409Z,41.60
2022-08-16T07:32:16.281Z,37.72
2022-08-16T07:35:11.238Z,37.25
2022-08-16T07:38:09.261Z,35.80
2022-08-16T07:41:00.674Z,37.90
2022-08-16T07:43:55.307Z,42.75
2022-08-16T07:46:42.474Z,38.95
2022-08-16T07:49:37.289Z,42.45
2022-08-16T07:52:48.311Z,46.00
2022-08-16T07:55:47.804Z,35.30
2022-08-16T07:58:42.323Z,34.50
2022-08-16T08:01:37.278Z,29.95
2022-08-16T08:04:33.732Z,35.15
2022-08-16T08:07:20.925Z,25.35
2022-08-16T08:10:29.464Z,26.65
2022-08-16T08:13:41.659Z,37.45
2022-08-16T08:16:36.276Z,43.67
2022-08-16T08:19:31.339Z,38.70
2022-08-16T08:22:22.102Z,39.72
2022-08-16T08:25:16.370Z,45.83
2022-08-16T08:28:11.039Z,34.38
2022-08-16T08:31:02.605Z,41.20
2022-08-16T08:33:56.298Z,42.33
2022-08-16T08:36:43.857Z,27.10
2022-08-16T08:39:37.379Z,38.30
2022-08-16T08:42:43.539Z,36.22
2022-08-16T08:45:52.677Z,35.33
2022-08-16T08:48:43.799Z,35.28
2022-08-16T08:51:41.219Z,31.33
2022-08-16T08:54:28.612Z,35.13
2022-08-16T08:57:23.359Z,36.75
2022-08-16T09:00:14.208Z,36.88
2022-08-16T09:03:08.459Z,45.13
2022-08-16T09:06:04.411Z,33.92
2022-08-16T09:08:51.649Z,26.35
2022-08-16T09:11:52.405Z,29.73
2022-08-16T09:14:49.358Z,19.15
2022-08-16T09:17:49.101Z,35.50
2022-08-16T09:20:59.947Z,32.90
2022-08-16T09:23:54.382Z,31.75
2022-08-16T09:26:45.664Z,33.03
2022-08-16T09:29:45.496Z,27.05
2022-08-16T09:32:39.440Z,20.52
2022-08-16T09:35:42.908Z,19.33
2022-08-16T09:38:32.818Z,36.75
2022-08-16T09:41:26.424Z,24.48
2022-08-16T09:45:12.201Z,33.13
2022-08-16T09:47:28.686Z,21.10
2022-08-16T09:50:43.435Z,30.95
2022-08-16T09:53:32.007Z,36.83
2022-08-16T09:56:38.488Z,24.92
2022-08-16T09:59:30.507Z,24.27
2022-08-16T10:02:27.011Z,15.95
2022-08-16T10:05:15.109Z,18.88
2022-08-16T10:08:26.069Z,22.75
2022-08-16T10:11:33.454Z,34.17
2022-08-16T10:14:46.063Z,28.27
2022-08-16T10:20:32.628Z,25.38
2022-08-16T10:23:28.733Z,16.80
2022-08-16T10:27:16.311Z,17.02
2022-08-16T10:30:01.271Z,19.38
2022-08-16T10:32:44.554Z,22.63
2022-08-16T10:35:32.861Z,33.13
2022-08-16T10:38:28.238Z,19.27
2022-08-16T10:41:15.985Z,21.52
2022-08-16T10:44:10.574Z,24.30
2022-08-16T10:47:04.590Z,26.25
2022-08-16T10:49:52.296Z,20.25
2022-08-16T10:52:45.506Z,34.38
2022-08-16T10:55:41.018Z,31.77
2022-08-16T10:58:39.541Z,26.17
2022-08-16T11:01:43.557Z,30.30
2022-08-16T11:07:54.092Z,22.65
2022-08-16T11:11:07.543Z,24.33
2022-08-16T11:14:06.165Z,20.45
2022-08-16T11:17:10.392Z,23.17
2022-08-16T11:23:18.610Z,24.23
2022-08-16T11:26:23.344Z,27.95
2022-08-16T11:29:17.657Z,33.63
2022-08-16T11:32:12.562Z,17.38
2022-08-16T11:35:14.795Z,26.50
2022-08-16T11:38:46.301Z,17.65
2022-08-16T11:41:19.772Z,23.58
2022-08-16T11:44:20.522Z,22.88
2022-08-16T11:47:28.631Z,13.88
2022-08-16T11:50:16.637Z,21.25
2022-08-16T11:53:12.673Z,26.45
2022-08-16T11:56:02.490Z,18.58
2022-08-16T11:58:56.933Z,16.77
2022-08-16T12:01:59.091Z,11.48
2022-08-16T12:04:53.604Z,24.35
2022-08-16T12:07:47.751Z,21.48
2022-08-16T12:10:44.684Z,20.17
2022-08-16T12:13:38.656Z,17.50
2022-08-16T12:16:31.279Z,25.10
2022-08-16T12:19:33.502Z,12.70
2022-08-16T12:22:27.713Z,16.48
2022-08-16T12:25:23.659Z,15.25
2022-08-16T12:28:11.112Z,9.93
2022-08-16T12:31:04.722Z,17.38
2022-08-16T12:33:59.726Z,11.90
2022-08-16T12:36:53.679Z,19.83
2022-08-16T12:39:51.288Z,11.65
2022-08-16T12:42:39.181Z,12.82
2022-08-16T12:45:56.704Z,10.82
2022-08-16T12:49:04.672Z,16.35
2022-08-16T12:51:59.742Z,10.80
2022-08-16T12:54:55.232Z,12.80
2022-08-16T12:57:58.328Z,11.35
2022-08-16T13:00:47.084Z,14.40
2022-08-16T13:03:41.759Z,11.10
2022-08-16T13:06:32.134Z,20.08
2022-08-16T13:09:32.746Z,15.57
2022-08-16T13:12:29.330Z,18.45
2022-08-16T13:15:26.155Z,16.27
2022-08-16T13:18:27.570Z,16.45
2022-08-16T13:21:28.795Z,15.13
2022-08-16T13:24:22.861Z,11.30
2022-08-16T13:27:10.224Z,13.30
2022-08-16T13:30:21.749Z,13.10
2022-08-16T13:33:16.996Z,20.17
2022-08-16T13:36:32.257Z,16.90
2022-08-16T13:39:21.070Z,15.70
2022-08-16T13:42:18.813Z,13.75
2022-08-16T13:45:10.576Z,19.25
2022-08-16T13:48:11.760Z,22.42
2022-08-16T13:51:22.850Z,21.77
2022-08-16T13:54:10.158Z,18.92
2022-08-16T13:57:03.867Z,19.30
2022-08-16T13:59:51.011Z,16.40
2022-08-16T14:02:58.892Z,12.70
2022-08-16T14:05:46.228Z,21.10
2022-08-16T14:08:42.279Z,14.95
2022-08-16T14:11:35.827Z,22.73
2022-08-16T14:14:29.145Z,15.00
2022-08-16T14:17:23.870Z,16.15
2022-08-16T14:20:14.470Z,12.60
2022-08-16T14:23:12.909Z,7.30
2022-08-16T14:26:06.850Z,16.13
2022-08-16T14:29:03.760Z,16.45
2022-08-16T14:31:57.849Z,16.60
2022-08-16T14:34:45.274Z,15.52
2022-08-16T14:37:38.914Z,19.00
2022-08-16T14:40:29.233Z,20.38
2022-08-16T14:43:22.936Z,19.35
2022-08-16T14:46:16.927Z,24.55
2022-08-16T14:49:04.593Z,15.40
2022-08-16T14:52:09.876Z,19.08
2022-08-16T14:55:04.994Z,17.80
2022-08-16T14:57:58.891Z,15.77
2022-08-16T15:00:52.991Z,13.27
2022-08-16T15:03:46.929Z,10.75
2022-08-16T15:06:35.859Z,9.75
2022-08-16T15:09:30.952Z,19.63
2022-08-16T15:12:33.478Z,14.65
2022-08-16T15:15:23.354Z,15.57
2022-08-16T15:18:23.131Z,14.07
2022-08-16T15:21:16.937Z,14.07
2022-08-16T15:24:04.402Z,8.85
2022-08-16T15:26:59.959Z,11.25
2022-08-16T15:29:47.071Z,8.63
2022-08-16T15:32:46.949Z,13.60
2022-08-16T15:35:38.858Z,16.70
2022-08-16T15:38:55.749Z,9.75
2022-08-16T15:41:48.959Z,22.08
2022-08-16T15:44:52.317Z,14.30
2022-08-16T15:47:41.079Z,15.93
2022-08-16T15:50:49.062Z,16.27
2022-08-16T15:53:46.438Z,14.80
2022-08-16T15:56:54.930Z,12.25
2022-08-16T16:00:14.611Z,15.38
2022-08-16T16:03:12.039Z,16.88
2022-08-16T16:06:06.014Z,16.92
2022-08-16T16:09:00.042Z,25.95
2022-08-16T16:11:47.897Z,22.42
2022-08-16T16:14:44.031Z,24.90
2022-08-16T16:17:31.130Z,25.13
2022-08-16T16:20:27.109Z,22.25
2022-08-16T16:23:18.507Z,14.30
2022-08-16T16:26:13.055Z,21.52
2022-08-16T16:29:15.033Z,22.58
2022-08-16T16:32:13.093Z,25.88
2022-08-16T16:35:06.087Z,18.35
2022-08-16T16:38:08.078Z,25.83
2022-08-16T16:43:57.062Z,19.13
2022-08-16T16:46:44.721Z,16.17
2022-08-16T16:49:51.078Z,22.95
2022-08-16T16:52:44.113Z,24.77
2022-08-16T16:55:39.140Z,27.70
2022-08-16T16:58:53.960Z,14.75
2022-08-16T17:01:57.654Z,22.23
2022-08-16T17:04:59.277Z,17.90
2022-08-16T17:07:54.114Z,21.52
2022-08-16T17:10:49.426Z,20.10
2022-08-16T17:13:38.545Z,18.98
2022-08-16T17:16:33.054Z,24.65
2022-08-16T17:19:23.885Z,19.75
2022-08-16T17:22:21.140Z,19.45
2022-08-16T17:25:16.123Z,22.10
2022-08-16T17:28:58.257Z,18.70
2022-08-16T17:31:17.604Z,19.85
2022-08-16T17:34:28.795Z,18.88
2022-08-16T17:37:42.645Z,15.65
2022-08-16T17:40:50.344Z,15.18
2022-08-16T17:43:52.221Z,19.88
2022-08-16T17:46:50.602Z,16.70
2022-08-16T17:49:47.151Z,19.15
2022-08-16T17:52:49.196Z,23.25
2022-08-16T17:55:45.190Z,18.73
2022-08-16T17:58:32.669Z,12.02
2022-08-16T18:01:33.298Z,12.73
2022-08-16T18:04:48.372Z,16.15
2022-08-16T18:07:34.408Z,16.00
2022-08-16T18:10:32.686Z,13.13
2022-08-16T18:13:27.234Z,21.65
2022-08-16T18:16:23.264Z,14.18
2022-08-16T18:19:17.260Z,10.52
2022-08-16T18:22:30.364Z,12.60
2022-08-16T18:25:18.119Z,20.52
2022-08-16T18:28:12.254Z,20.73
2022-08-16T18:31:06.210Z,18.50
2022-08-16T18:34:00.266Z,18.60
2022-08-16T18:36:48.214Z,18.95
2022-08-16T18:39:42.277Z,15.45
2022-08-16T18:42:29.417Z,11.13
2022-08-16T18:45:23.225Z,10.93
2022-08-16T18:48:18.275Z,9.80
2022-08-16T18:51:09.353Z,11.90
2022-08-16T18:54:07.230Z,13.35
2022-08-16T18:56:57.960Z,12.82
2022-08-16T18:59:52.317Z,10.70
2022-08-16T19:02:57.662Z,12.23
2022-08-16T19:05:56.362Z,9.13
2022-08-16T19:08:45.137Z,12.55
2022-08-16T19:11:40.353Z,12.20
2022-08-16T19:14:30.136Z,11.52
2022-08-16T19:17:23.277Z,10.48
2022-08-16T19:20:11.466Z,10.93
2022-08-16T19:23:10.145Z,8.80
2022-08-16T19:26:01.692Z,7.30
2022-08-16T19:28:58.414Z,6.30
2022-08-16T19:31:53.510Z,7.93
2022-08-16T19:34:47.403Z,5.90
2022-08-16T19:37:35.017Z,7.18
2022-08-16T19:40:40.470Z,8.05
2022-08-16T19:43:27.678Z,7.32
2022-08-16T19:46:21.342Z,6.03
2022-08-16T19:49:16.538Z,7.35
2022-08-16T19:52:16.938Z,8.18
2022-08-16T19:55:17.170Z,7.28
2022-08-16T20:01:07.426Z,7.00
2022-08-16T20:04:01.400Z,6.78
2022-08-16T20:06:55.361Z,7.70
2022-08-16T20:09:42.795Z,6.95
2022-08-16T20:12:36.379Z,7.63
2022-08-16T20:15:29.422Z,6.10
2022-08-16T20:18:25.363Z,9.07
2022-08-16T20:21:13.160Z,7.78
2022-08-16T20:24:32.858Z,8.20
2022-08-16T20:27:13.722Z,7.47
2022-08-16T20:30:08.513Z,6.93
2022-08-16T20:32:56.211Z,7.28
2022-08-16T20:35:51.591Z,8.60
2022-08-16T20:38:49.428Z,7.93
2022-08-16T20:41:36.600Z,8.18
2022-08-16T20:44:30.395Z,7.53
2022-08-16T20:47:24.494Z,9.02
2022-08-16T20:50:11.659Z,9.13
2022-08-16T20:53:06.471Z,9.48
2022-08-16T20:56:00.517Z,9.07
2022-08-16T20:58:54.489Z,8.02
2022-08-16T21:01:50.356Z,9.65
2022-08-16T21:04:38.224Z,8.80
2022-08-16T21:07:31.470Z,9.57
2022-08-16T21:10:27.685Z,9.00
2022-08-16T21:13:14.831Z,8.18
2022-08-16T21:16:09.494Z,9.77
2022-08-16T21:18:56.881Z,11.13
2022-08-16T21:21:50.491Z,9.82
2022-08-16T21:24:44.521Z,10.68
2022-08-16T21:28:35.449Z,11.57
2022-08-16T21:30:55.490Z,11.10
2022-08-16T21:33:55.258Z,9.70
2022-08-16T21:36:49.844Z,11.82
2022-08-16T21:39:43.660Z,10.10
2022-08-16T21:42:36.193Z,10.60
2022-08-16T21:45:30.534Z,11.13
2022-08-16T21:48:17.766Z,10.00
2022-08-16T21:51:28.546Z,9.75
2022-08-16T21:54:22.568Z,9.82
2022-08-16T21:57:10.957Z,10.65
2022-08-16T22:00:04.584Z,8.85
2022-08-16T22:02:57.806Z,10.07
2022-08-16T22:06:11.569Z,12.02
2022-08-16T22:09:07.654Z,14.88
2022-08-16T22:12:01.608Z,13.77
2022-08-16T22:14:48.762Z,14.95
2022-08-16T22:17:42.609Z,10.65
2022-08-16T22:20:37.586Z,13.10
2022-08-16T22:23:26.394Z,16.55
2022-08-16T22:26:30.908Z,16.80
2022-08-16T22:29:19.161Z,15.95
2022-08-16T22:32:13.650Z,19.17
2022-08-16T22:35:10.750Z,20.50
2022-08-16T22:38:54.378Z,13.82
2022-08-16T22:41:14.749Z,18.63
2022-08-16T22:44:12.605Z,18.85
2022-08-16T22:46:59.904Z,16.90
2022-08-16T22:49:53.636Z,17.02
2022-08-16T22:52:49.604Z,18.17
2022-08-16T22:55:50.621Z,17.33
2022-08-16T22:58:39.218Z,17.75
2022-08-16T23:01:33.669Z,16.55
2022-08-16T23:04:20.883Z,15.95
2022-08-16T23:07:14.684Z,15.20
2022-08-16T23:10:01.859Z,16.75
2022-08-16T23:13:04.666Z,19.02
2022-08-16T23:16:10.698Z,17.35
2022-08-16T23:19:05.720Z,21.20
2022-08-16T23:21:52.851Z,15.50
2022-08-16T23:24:56.630Z,16.33
2022-08-16T23:27:44.178Z,14.45
2022-08-16T23:30:40.819Z,14.98
2022-08-16T23:33:35.697Z,18.70
2022-08-16T23:36:22.765Z,15.63
2022-08-16T23:39:16.683Z,16.33
2022-08-16T23:42:52.339Z,15.43
2022-08-16T23:45:58.768Z,16.98
2022-08-16T23:49:56.847Z,15.32
2022-08-16T23:52:01.728Z,15.85
2022-08-16T23:54:48.850Z,17.40
2022-08-16T23:57:42.820Z,14.73
